sensor_id;sensor_type;location;lat;lon;timestamp;P1;durP1;ratioP1;P2;durP2;ratioP2
74851;SDS011;63400;50.650;6.832;2024-01-16T00:01:15;11.43;;;3.35;;
74851;SDS011;63400;50.650;6.832;2024-01-16T00:03:43;8.77;;;2.35;;
74851;SDS011;63400;50.650;6.832;2024-01-16T00:06:09;7.15;;;2.65;;
74851;SDS011;63400;50.650;6.832;2024-01-16T00:08:34;7.47;;;2.70;;
74851;SDS011;63400;50.650;6.832;2024-01-16T00:11:01;10.52;;;2.95;;
74851;SDS011;63400;50.650;6.832;2024-01-16T00:13:27;7.75;;;2.92;;
74851;SDS011;63400;50.650;6.832;2024-01-16T00:15:52;7.00;;;1.95;;
74851;SDS011;63400;50.650;6.832;2024-01-16T00:18:18;11.73;;;2.78;;
74851;SDS011;63400;50.650;6.832;2024-01-16T00:20:43;9.00;;;2.40;;
74851;SDS011;63400;50.650;6.832;2024-01-16T00:23:09;8.18;;;2.42;;
74851;SDS011;63400;50.650;6.832;2024-01-16T00:25:35;8.68;;;2.92;;
74851;SDS011;63400;50.650;6.832;2024-01-16T00:28:01;10.80;;;2.88;;
74851;SDS011;63400;50.650;6.832;2024-01-16T00:30:26;6.55;;;2.25;;
74851;SDS011;63400;50.650;6.832;2024-01-16T00:32:52;12.02;;;2.55;;
74851;SDS011;63400;50.650;6.832;2024-01-16T00:35:17;9.07;;;2.25;;
74851;SDS011;63400;50.650;6.832;2024-01-16T00:37:43;8.07;;;3.38;;
74851;SDS011;63400;50.650;6.832;2024-01-16T00:40:08;10.93;;;2.50;;
74851;SDS011;63400;50.650;6.832;2024-01-16T00:42:34;11.25;;;2.88;;
74851;SDS011;63400;50.650;6.832;2024-01-16T00:44:59;10.25;;;2.47;;
74851;SDS011;63400;50.650;6.832;2024-01-16T00:47:25;8.50;;;2.03;;
74851;SDS011;63400;50.650;6.832;2024-01-16T00:49:50;11.25;;;2.65;;
74851;SDS011;63400;50.650;6.832;2024-01-16T00:52:16;5.13;;;1.85;;
74851;SDS011;63400;50.650;6.832;2024-01-16T00:54:42;7.78;;;2.85;;
74851;SDS011;63400;50.650;6.832;2024-01-16T00:57:08;8.77;;;2.72;;
74851;SDS011;63400;50.650;6.832;2024-01-16T00:59:33;9.13;;;1.90;;
74851;SDS011;63400;50.650;6.832;2024-01-16T01:01:59;8.43;;;2.55;;
74851;SDS011;63400;50.650;6.832;2024-01-16T01:04:24;6.47;;;2.10;;
74851;SDS011;63400;50.650;6.832;2024-01-16T01:06:50;7.38;;;1.42;;
74851;SDS011;63400;50.650;6.832;2024-01-16T01:09:16;8.80;;;2.20;;
74851;SDS011;63400;50.650;6.832;2024-01-16T01:11:41;7.90;;;2.35;;
74851;SDS011;63400;50.650;6.832;2024-01-16T01:14:07;6.30;;;1.90;;
74851;SDS011;63400;50.650;6.832;2024-01-16T01:16:32;5.97;;;1.90;;
74851;SDS011;63400;50.650;6.832;2024-01-16T01:18:58;7.30;;;2.08;;
74851;SDS011;63400;50.650;6.832;2024-01-16T01:21:23;7.25;;;1.83;;
74851;SDS011;63400;50.650;6.832;2024-01-16T01:23:49;9.30;;;2.33;;
74851;SDS011;63400;50.650;6.832;2024-01-16T01:26:14;6.88;;;1.58;;
74851;SDS011;63400;50.650;6.832;2024-01-16T01:28:40;9.43;;;2.38;;
74851;SDS011;63400;50.650;6.832;2024-01-16T01:31:08;7.57;;;2.00;;
74851;SDS011;63400;50.650;6.832;2024-01-16T01:33:34;7.75;;;2.10;;
74851;SDS011;63400;50.650;6.832;2024-01-16T01:35:59;8.82;;;2.17;;
74851;SDS011;63400;50.650;6.832;2024-01-16T01:38:24;11.82;;;2.55;;
74851;SDS011;63400;50.650;6.832;2024-01-16T01:40:50;15.00;;;4.00;;
74851;SDS011;63400;50.650;6.832;2024-01-16T01:43:25;6.55;;;2.45;;
74851;SDS011;63400;50.650;6.832;2024-01-16T01:46:36;10.13;;;2.47;;
74851;SDS011;63400;50.650;6.832;2024-01-16T01:48:43;7.70;;;2.40;;
74851;SDS011;63400;50.650;6.832;2024-01-16T01:51:12;9.38;;;2.65;;
74851;SDS011;63400;50.650;6.832;2024-01-16T01:53:41;8.88;;;2.65;;
74851;SDS011;63400;50.650;6.832;2024-01-16T01:56:08;8.35;;;2.78;;
74851;SDS011;63400;50.650;6.832;2024-01-16T01:58:36;7.15;;;3.13;;
74851;SDS011;63400;50.650;6.832;2024-01-16T02:01:05;10.15;;;3.38;;
74851;SDS011;63400;50.650;6.832;2024-01-16T02:03:32;9.85;;;2.47;;
74851;SDS011;63400;50.650;6.832;2024-01-16T02:06:00;8.93;;;2.85;;
74851;SDS011;63400;50.650;6.832;2024-01-16T02:08:26;12.32;;;2.50;;
74851;SDS011;63400;50.650;6.832;2024-01-16T02:10:52;7.93;;;1.95;;
74851;SDS011;63400;50.650;6.832;2024-01-16T02:13:18;10.35;;;2.40;;
74851;SDS011;63400;50.650;6.832;2024-01-16T02:15:48;11.43;;;2.97;;
74851;SDS011;63400;50.650;6.832;2024-01-16T02:18:14;7.07;;;1.77;;
74851;SDS011;63400;50.650;6.832;2024-01-16T02:20:39;8.30;;;2.08;;
74851;SDS011;63400;50.650;6.832;2024-01-16T02:23:05;6.82;;;2.58;;
74851;SDS011;63400;50.650;6.832;2024-01-16T02:25:31;11.15;;;2.15;;
74851;SDS011;63400;50.650;6.832;2024-01-16T02:27:57;8.40;;;2.65;;
74851;SDS011;63400;50.650;6.832;2024-01-16T02:30:22;8.13;;;2.05;;
74851;SDS011;63400;50.650;6.832;2024-01-16T02:32:47;10.18;;;2.70;;
74851;SDS011;63400;50.650;6.832;2024-01-16T02:35:13;10.93;;;2.55;;
74851;SDS011;63400;50.650;6.832;2024-01-16T02:37:40;7.80;;;2.50;;
74851;SDS011;63400;50.650;6.832;2024-01-16T02:40:07;5.60;;;1.95;;
74851;SDS011;63400;50.650;6.832;2024-01-16T02:42:34;9.15;;;2.53;;
74851;SDS011;63400;50.650;6.832;2024-01-16T02:45:02;7.50;;;2.30;;
74851;SDS011;63400;50.650;6.832;2024-01-16T02:47:28;8.32;;;2.15;;
74851;SDS011;63400;50.650;6.832;2024-01-16T02:49:54;6.68;;;2.00;;
74851;SDS011;63400;50.650;6.832;2024-01-16T02:52:20;7.75;;;2.00;;
74851;SDS011;63400;50.650;6.832;2024-01-16T02:54:45;5.72;;;1.85;;
74851;SDS011;63400;50.650;6.832;2024-01-16T02:57:10;9.52;;;2.55;;
74851;SDS011;63400;50.650;6.832;2024-01-16T02:59:36;9.63;;;3.03;;
74851;SDS011;63400;50.650;6.832;2024-01-16T03:02:01;13.75;;;3.63;;
74851;SDS011;63400;50.650;6.832;2024-01-16T03:04:27;10.05;;;2.67;;
74851;SDS011;63400;50.650;6.832;2024-01-16T03:06:53;13.80;;;3.90;;
74851;SDS011;63400;50.650;6.832;2024-01-16T03:09:18;11.80;;;2.67;;
74851;SDS011;63400;50.650;6.832;2024-01-16T03:11:44;9.32;;;3.00;;
74851;SDS011;63400;50.650;6.832;2024-01-16T03:14:09;10.35;;;2.33;;
74851;SDS011;63400;50.650;6.832;2024-01-16T03:16:34;11.00;;;2.60;;
74851;SDS011;63400;50.650;6.832;2024-01-16T03:19:00;14.77;;;3.70;;
74851;SDS011;63400;50.650;6.832;2024-01-16T03:21:25;9.35;;;2.75;;
74851;SDS011;63400;50.650;6.832;2024-01-16T03:23:51;7.75;;;2.58;;
74851;SDS011;63400;50.650;6.832;2024-01-16T03:26:16;12.98;;;3.25;;
74851;SDS011;63400;50.650;6.832;2024-01-16T03:28:42;10.77;;;2.80;;
74851;SDS011;63400;50.650;6.832;2024-01-16T03:31:07;9.02;;;2.75;;
74851;SDS011;63400;50.650;6.832;2024-01-16T03:33:33;12.00;;;3.17;;
74851;SDS011;63400;50.650;6.832;2024-01-16T03:36:00;7.22;;;2.40;;
74851;SDS011;63400;50.650;6.832;2024-01-16T03:38:25;9.60;;;2.42;;
74851;SDS011;63400;50.650;6.832;2024-01-16T03:40:51;5.93;;;2.03;;
74851;SDS011;63400;50.650;6.832;2024-01-16T03:43:16;9.32;;;2.30;;
74851;SDS011;63400;50.650;6.832;2024-01-16T03:45:42;7.10;;;1.77;;
74851;SDS011;63400;50.650;6.832;2024-01-16T03:48:08;7.75;;;2.22;;
74851;SDS011;63400;50.650;6.832;2024-01-16T03:50:34;8.55;;;2.25;;
74851;SDS011;63400;50.650;6.832;2024-01-16T03:53:01;8.00;;;2.35;;
74851;SDS011;63400;50.650;6.832;2024-01-16T03:55:26;9.70;;;3.25;;
74851;SDS011;63400;50.650;6.832;2024-01-16T03:57:52;6.00;;;1.38;;
74851;SDS011;63400;50.650;6.832;2024-01-16T04:00:18;7.65;;;2.17;;
74851;SDS011;63400;50.650;6.832;2024-01-16T04:02:43;11.05;;;2.60;;
74851;SDS011;63400;50.650;6.832;2024-01-16T04:05:08;6.82;;;1.83;;
74851;SDS011;63400;50.650;6.832;2024-01-16T04:07:34;9.18;;;2.00;;
74851;SDS011;63400;50.650;6.832;2024-01-16T04:10:00;8.90;;;2.75;;
74851;SDS011;63400;50.650;6.832;2024-01-16T04:12:26;10.05;;;2.45;;
74851;SDS011;63400;50.650;6.832;2024-01-16T04:14:51;6.53;;;1.80;;
74851;SDS011;63400;50.650;6.832;2024-01-16T04:17:17;11.13;;;2.53;;
74851;SDS011;63400;50.650;6.832;2024-01-16T04:19:42;6.15;;;2.30;;
74851;SDS011;63400;50.650;6.832;2024-01-16T04:22:08;8.45;;;1.80;;
74851;SDS011;63400;50.650;6.832;2024-01-16T04:24:34;8.75;;;2.38;;
74851;SDS011;63400;50.650;6.832;2024-01-16T04:26:59;5.97;;;1.70;;
74851;SDS011;63400;50.650;6.832;2024-01-16T04:29:25;9.80;;;2.85;;
74851;SDS011;63400;50.650;6.832;2024-01-16T04:31:50;11.00;;;2.78;;
74851;SDS011;63400;50.650;6.832;2024-01-16T04:34:15;4.82;;;1.55;;
74851;SDS011;63400;50.650;6.832;2024-01-16T04:36:41;8.00;;;2.42;;
74851;SDS011;63400;50.650;6.832;2024-01-16T04:39:06;11.20;;;2.22;;
74851;SDS011;63400;50.650;6.832;2024-01-16T04:41:33;7.40;;;2.72;;
74851;SDS011;63400;50.650;6.832;2024-01-16T04:43:59;7.97;;;2.17;;
74851;SDS011;63400;50.650;6.832;2024-01-16T04:46:24;8.48;;;3.15;;
74851;SDS011;63400;50.650;6.832;2024-01-16T04:48:49;9.40;;;2.58;;
74851;SDS011;63400;50.650;6.832;2024-01-16T04:51:15;6.90;;;2.25;;
74851;SDS011;63400;50.650;6.832;2024-01-16T04:53:40;9.02;;;2.90;;
74851;SDS011;63400;50.650;6.832;2024-01-16T04:56:06;7.20;;;2.63;;
74851;SDS011;63400;50.650;6.832;2024-01-16T04:58:31;7.25;;;2.13;;
74851;SDS011;63400;50.650;6.832;2024-01-16T05:00:56;7.53;;;3.05;;
74851;SDS011;63400;50.650;6.832;2024-01-16T05:03:22;7.47;;;2.25;;
74851;SDS011;63400;50.650;6.832;2024-01-16T05:05:47;11.00;;;3.08;;
74851;SDS011;63400;50.650;6.832;2024-01-16T05:08:13;7.13;;;2.78;;
74851;SDS011;63400;50.650;6.832;2024-01-16T05:10:38;9.38;;;3.13;;
74851;SDS011;63400;50.650;6.832;2024-01-16T05:13:03;10.43;;;3.42;;
74851;SDS011;63400;50.650;6.832;2024-01-16T05:15:29;9.02;;;2.10;;
74851;SDS011;63400;50.650;6.832;2024-01-16T05:17:54;7.85;;;2.63;;
74851;SDS011;63400;50.650;6.832;2024-01-16T05:20:20;8.93;;;2.22;;
74851;SDS011;63400;50.650;6.832;2024-01-16T05:22:46;7.75;;;2.30;;
74851;SDS011;63400;50.650;6.832;2024-01-16T05:25:11;8.95;;;2.80;;
74851;SDS011;63400;50.650;6.832;2024-01-16T05:27:37;7.28;;;2.13;;
74851;SDS011;63400;50.650;6.832;2024-01-16T05:30:02;7.30;;;2.25;;
74851;SDS011;63400;50.650;6.832;2024-01-16T05:32:28;8.52;;;2.08;;
74851;SDS011;63400;50.650;6.832;2024-01-16T05:34:54;7.25;;;1.73;;
74851;SDS011;63400;50.650;6.832;2024-01-16T05:37:19;7.50;;;1.80;;
74851;SDS011;63400;50.650;6.832;2024-01-16T05:39:44;6.60;;;2.08;;
74851;SDS011;63400;50.650;6.832;2024-01-16T05:42:11;7.15;;;1.20;;
74851;SDS011;63400;50.650;6.832;2024-01-16T05:44:37;9.25;;;1.63;;
74851;SDS011;63400;50.650;6.832;2024-01-16T05:47:03;11.85;;;1.95;;
74851;SDS011;63400;50.650;6.832;2024-01-16T05:49:28;9.80;;;2.30;;
74851;SDS011;63400;50.650;6.832;2024-01-16T05:51:54;7.38;;;1.83;;
74851;SDS011;63400;50.650;6.832;2024-01-16T05:54:19;7.40;;;2.10;;
74851;SDS011;63400;50.650;6.832;2024-01-16T05:56:45;8.27;;;1.23;;
74851;SDS011;63400;50.650;6.832;2024-01-16T05:59:10;9.60;;;1.58;;
74851;SDS011;63400;50.650;6.832;2024-01-16T06:01:35;8.20;;;2.00;;
74851;SDS011;63400;50.650;6.832;2024-01-16T06:04:01;6.30;;;1.83;;
74851;SDS011;63400;50.650;6.832;2024-01-16T06:06:26;5.60;;;1.88;;
74851;SDS011;63400;50.650;6.832;2024-01-16T06:08:52;6.00;;;1.48;;
74851;SDS011;63400;50.650;6.832;2024-01-16T06:11:17;7.43;;;1.73;;
74851;SDS011;63400;50.650;6.832;2024-01-16T06:13:44;6.53;;;1.65;;
74851;SDS011;63400;50.650;6.832;2024-01-16T06:16:10;5.95;;;1.73;;
74851;SDS011;63400;50.650;6.832;2024-01-16T06:18:35;10.45;;;1.38;;
74851;SDS011;63400;50.650;6.832;2024-01-16T06:21:01;9.32;;;2.45;;
74851;SDS011;63400;50.650;6.832;2024-01-16T06:23:27;7.32;;;2.42;;
74851;SDS011;63400;50.650;6.832;2024-01-16T06:25:52;4.78;;;1.25;;
74851;SDS011;63400;50.650;6.832;2024-01-16T06:28:17;8.15;;;2.20;;
74851;SDS011;63400;50.650;6.832;2024-01-16T06:30:43;13.05;;;2.03;;
74851;SDS011;63400;50.650;6.832;2024-01-16T06:33:08;7.80;;;1.85;;
74851;SDS011;63400;50.650;6.832;2024-01-16T06:35:34;8.35;;;1.35;;
74851;SDS011;63400;50.650;6.832;2024-01-16T06:37:59;8.15;;;1.92;;
74851;SDS011;63400;50.650;6.832;2024-01-16T06:40:24;7.78;;;1.95;;
74851;SDS011;63400;50.650;6.832;2024-01-16T06:42:50;4.72;;;1.00;;
74851;SDS011;63400;50.650;6.832;2024-01-16T06:45:15;10.02;;;1.65;;
74851;SDS011;63400;50.650;6.832;2024-01-16T06:47:41;10.40;;;2.08;;
74851;SDS011;63400;50.650;6.832;2024-01-16T06:50:07;10.43;;;2.13;;
74851;SDS011;63400;50.650;6.832;2024-01-16T06:52:33;6.35;;;1.50;;
74851;SDS011;63400;50.650;6.832;2024-01-16T06:54:59;10.20;;;2.78;;
74851;SDS011;63400;50.650;6.832;2024-01-16T06:57:24;7.63;;;1.35;;
74851;SDS011;63400;50.650;6.832;2024-01-16T06:59:50;8.35;;;1.70;;
74851;SDS011;63400;50.650;6.832;2024-01-16T07:02:15;7.25;;;1.95;;
74851;SDS011;63400;50.650;6.832;2024-01-16T07:04:40;5.07;;;1.58;;
74851;SDS011;63400;50.650;6.832;2024-01-16T07:07:06;8.20;;;1.90;;
74851;SDS011;63400;50.650;6.832;2024-01-16T07:09:31;9.73;;;2.10;;
74851;SDS011;63400;50.650;6.832;2024-01-16T07:11:56;5.10;;;1.30;;
74851;SDS011;63400;50.650;6.832;2024-01-16T07:14:22;7.25;;;1.40;;
74851;SDS011;63400;50.650;6.832;2024-01-16T07:16:47;6.82;;;1.67;;
74851;SDS011;63400;50.650;6.832;2024-01-16T07:19:13;8.93;;;1.65;;
74851;SDS011;63400;50.650;6.832;2024-01-16T07:21:38;5.47;;;1.10;;
74851;SDS011;63400;50.650;6.832;2024-01-16T07:24:03;3.97;;;0.93;;
74851;SDS011;63400;50.650;6.832;2024-01-16T07:26:29;8.45;;;1.88;;
74851;SDS011;63400;50.650;6.832;2024-01-16T07:28:55;5.45;;;1.65;;
74851;SDS011;63400;50.650;6.832;2024-01-16T07:31:20;6.47;;;1.73;;
74851;SDS011;63400;50.650;6.832;2024-01-16T07:33:46;9.23;;;1.50;;
74851;SDS011;63400;50.650;6.832;2024-01-16T07:36:11;5.75;;;1.15;;
74851;SDS011;63400;50.650;6.832;2024-01-16T07:38:37;9.57;;;1.90;;
74851;SDS011;63400;50.650;6.832;2024-01-16T07:41:02;9.88;;;1.88;;
74851;SDS011;63400;50.650;6.832;2024-01-16T07:43:28;6.50;;;1.02;;
74851;SDS011;63400;50.650;6.832;2024-01-16T07:45:56;4.95;;;1.70;;
74851;SDS011;63400;50.650;6.832;2024-01-16T07:48:22;5.63;;;1.27;;
74851;SDS011;63400;50.650;6.832;2024-01-16T07:50:48;8.18;;;2.10;;
74851;SDS011;63400;50.650;6.832;2024-01-16T07:53:14;6.47;;;1.77;;
74851;SDS011;63400;50.650;6.832;2024-01-16T07:55:40;8.73;;;1.55;;
74851;SDS011;63400;50.650;6.832;2024-01-16T07:58:06;5.50;;;1.20;;
74851;SDS011;63400;50.650;6.832;2024-01-16T08:00:31;7.38;;;1.48;;
74851;SDS011;63400;50.650;6.832;2024-01-16T08:02:56;7.32;;;1.67;;
74851;SDS011;63400;50.650;6.832;2024-01-16T08:05:22;7.68;;;2.38;;
74851;SDS011;63400;50.650;6.832;2024-01-16T08:07:50;4.05;;;1.10;;
74851;SDS011;63400;50.650;6.832;2024-01-16T08:10:16;7.10;;;1.92;;
74851;SDS011;63400;50.650;6.832;2024-01-16T08:12:42;7.47;;;2.25;;
74851;SDS011;63400;50.650;6.832;2024-01-16T08:15:07;4.82;;;1.17;;
74851;SDS011;63400;50.650;6.832;2024-01-16T08:17:33;7.85;;;2.35;;
74851;SDS011;63400;50.650;6.832;2024-01-16T08:19:59;5.85;;;1.55;;
74851;SDS011;63400;50.650;6.832;2024-01-16T08:22:24;9.65;;;2.50;;
74851;SDS011;63400;50.650;6.832;2024-01-16T08:24:49;7.35;;;2.03;;
74851;SDS011;63400;50.650;6.832;2024-01-16T08:27:15;11.20;;;2.42;;
74851;SDS011;63400;50.650;6.832;2024-01-16T08:29:42;10.57;;;3.05;;
74851;SDS011;63400;50.650;6.832;2024-01-16T08:32:07;8.45;;;2.08;;
74851;SDS011;63400;50.650;6.832;2024-01-16T08:34:32;10.02;;;2.70;;
74851;SDS011;63400;50.650;6.832;2024-01-16T08:36:58;6.82;;;1.85;;
74851;SDS011;63400;50.650;6.832;2024-01-16T08:39:23;7.47;;;1.80;;
74851;SDS011;63400;50.650;6.832;2024-01-16T08:41:49;7.30;;;2.53;;
74851;SDS011;63400;50.650;6.832;2024-01-16T08:44:15;11.80;;;2.72;;
74851;SDS011;63400;50.650;6.832;2024-01-16T08:46:40;10.02;;;2.95;;
74851;SDS011;63400;50.650;6.832;2024-01-16T08:49:06;14.57;;;3.40;;
74851;SDS011;63400;50.650;6.832;2024-01-16T08:51:31;10.90;;;2.72;;
74851;SDS011;63400;50.650;6.832;2024-01-16T08:53:56;10.35;;;2.30;;
74851;SDS011;63400;50.650;6.832;2024-01-16T08:56:22;7.03;;;2.25;;
74851;SDS011;63400;50.650;6.832;2024-01-16T08:58:47;5.93;;;1.35;;
74851;SDS011;63400;50.650;6.832;2024-01-16T09:01:13;8.88;;;2.10;;
74851;SDS011;63400;50.650;6.832;2024-01-16T09:03:38;8.40;;;1.90;;
74851;SDS011;63400;50.650;6.832;2024-01-16T09:06:03;9.38;;;2.42;;
74851;SDS011;63400;50.650;6.832;2024-01-16T09:08:29;6.22;;;1.67;;
74851;SDS011;63400;50.650;6.832;2024-01-16T09:10:54;10.00;;;2.00;;
74851;SDS011;63400;50.650;6.832;2024-01-16T09:13:21;8.63;;;1.40;;
74851;SDS011;63400;50.650;6.832;2024-01-16T09:15:48;5.38;;;1.80;;
74851;SDS011;63400;50.650;6.832;2024-01-16T09:18:14;10.02;;;1.30;;
74851;SDS011;63400;50.650;6.832;2024-01-16T09:20:41;8.73;;;1.95;;
74851;SDS011;63400;50.650;6.832;2024-01-16T09:23:09;6.25;;;1.67;;
74851;SDS011;63400;50.650;6.832;2024-01-16T09:25:35;4.60;;;1.20;;
74851;SDS011;63400;50.650;6.832;2024-01-16T09:28:00;4.45;;;1.33;;
74851;SDS011;63400;50.650;6.832;2024-01-16T09:30:26;6.20;;;1.80;;
74851;SDS011;63400;50.650;6.832;2024-01-16T09:32:52;4.80;;;1.20;;
74851;SDS011;63400;50.650;6.832;2024-01-16T09:35:17;5.80;;;1.10;;
74851;SDS011;63400;50.650;6.832;2024-01-16T09:37:42;5.50;;;0.90;;
74851;SDS011;63400;50.650;6.832;2024-01-16T09:40:08;6.45;;;1.08;;
74851;SDS011;63400;50.650;6.832;2024-01-16T09:42:34;5.60;;;0.77;;
74851;SDS011;63400;50.650;6.832;2024-01-16T09:45:00;5.72;;;0.88;;
74851;SDS011;63400;50.650;6.832;2024-01-16T09:47:27;4.43;;;0.77;;
74851;SDS011;63400;50.650;6.832;2024-01-16T09:49:55;4.80;;;0.90;;
74851;SDS011;63400;50.650;6.832;2024-01-16T09:52:22;4.03;;;1.02;;
74851;SDS011;63400;50.650;6.832;2024-01-16T09:54:48;6.63;;;1.10;;
74851;SDS011;63400;50.650;6.832;2024-01-16T09:57:13;5.55;;;0.60;;
74851;SDS011;63400;50.650;6.832;2024-01-16T09:59:40;6.55;;;0.98;;
74851;SDS011;63400;50.650;6.832;2024-01-16T10:02:07;5.00;;;1.00;;
74851;SDS011;63400;50.650;6.832;2024-01-16T10:04:33;7.47;;;1.17;;
74851;SDS011;63400;50.650;6.832;2024-01-16T10:06:59;3.10;;;0.82;;
74851;SDS011;63400;50.650;6.832;2024-01-16T10:09:26;5.80;;;1.30;;
74851;SDS011;63400;50.650;6.832;2024-01-16T10:11:52;3.60;;;0.70;;
74851;SDS011;63400;50.650;6.832;2024-01-16T10:14:18;3.92;;;1.10;;
74851;SDS011;63400;50.650;6.832;2024-01-16T10:16:58;6.22;;;0.80;;
74851;SDS011;63400;50.650;6.832;2024-01-16T10:19:28;6.28;;;1.10;;
74851;SDS011;63400;50.650;6.832;2024-01-16T10:22:04;8.95;;;2.15;;
74851;SDS011;63400;50.650;6.832;2024-01-16T10:24:30;9.00;;;1.52;;
74851;SDS011;63400;50.650;6.832;2024-01-16T10:26:59;5.38;;;1.23;;
74851;SDS011;63400;50.650;6.832;2024-01-16T10:29:25;8.40;;;1.30;;
74851;SDS011;63400;50.650;6.832;2024-01-16T10:31:51;4.07;;;1.08;;
74851;SDS011;63400;50.650;6.832;2024-01-16T10:34:20;5.72;;;1.42;;
74851;SDS011;63400;50.650;6.832;2024-01-16T10:36:46;6.15;;;1.20;;
74851;SDS011;63400;50.650;6.832;2024-01-16T10:39:12;4.25;;;1.38;;
74851;SDS011;63400;50.650;6.832;2024-01-16T10:41:39;4.75;;;1.10;;
74851;SDS011;63400;50.650;6.832;2024-01-16T10:44:04;2.58;;;0.57;;
74851;SDS011;63400;50.650;6.832;2024-01-16T10:46:34;4.82;;;1.77;;
74851;SDS011;63400;50.650;6.832;2024-01-16T10:49:01;4.47;;;0.98;;
74851;SDS011;63400;50.650;6.832;2024-01-16T10:51:29;4.72;;;0.82;;
74851;SDS011;63400;50.650;6.832;2024-01-16T10:53:59;4.38;;;0.80;;
74851;SDS011;63400;50.650;6.832;2024-01-16T10:56:29;4.78;;;0.95;;
74851;SDS011;63400;50.650;6.832;2024-01-16T10:58:59;6.38;;;0.63;;
74851;SDS011;63400;50.650;6.832;2024-01-16T11:01:26;5.53;;;1.15;;
74851;SDS011;63400;50.650;6.832;2024-01-16T11:03:53;4.15;;;0.85;;
74851;SDS011;63400;50.650;6.832;2024-01-16T11:06:22;3.92;;;0.70;;
74851;SDS011;63400;50.650;6.832;2024-01-16T11:08:48;6.18;;;1.20;;
74851;SDS011;63400;50.650;6.832;2024-01-16T11:11:14;2.85;;;0.80;;
74851;SDS011;63400;50.650;6.832;2024-01-16T11:13:40;5.57;;;0.82;;
74851;SDS011;63400;50.650;6.832;2024-01-16T11:16:09;4.72;;;0.65;;
74851;SDS011;63400;50.650;6.832;2024-01-16T11:18:35;6.07;;;1.20;;
74851;SDS011;63400;50.650;6.832;2024-01-16T11:21:02;8.70;;;1.38;;
74851;SDS011;63400;50.650;6.832;2024-01-16T11:23:30;3.95;;;0.47;;
74851;SDS011;63400;50.650;6.832;2024-01-16T11:25:55;3.13;;;0.43;;
74851;SDS011;63400;50.650;6.832;2024-01-16T11:28:21;5.35;;;1.40;;
74851;SDS011;63400;50.650;6.832;2024-01-16T11:30:52;5.68;;;0.85;;
74851;SDS011;63400;50.650;6.832;2024-01-16T11:35:59;5.07;;;0.93;;
74851;SDS011;63400;50.650;6.832;2024-01-16T11:38:25;6.30;;;1.23;;
74851;SDS011;63400;50.650;6.832;2024-01-16T11:40:54;3.65;;;0.70;;
74851;SDS011;63400;50.650;6.832;2024-01-16T11:46:01;4.18;;;1.10;;
74851;SDS011;63400;50.650;6.832;2024-01-16T11:48:27;6.68;;;0.90;;
74851;SDS011;63400;50.650;6.832;2024-01-16T11:50:53;7.55;;;1.70;;
74851;SDS011;63400;50.650;6.832;2024-01-16T11:53:31;6.15;;;1.10;;
74851;SDS011;63400;50.650;6.832;2024-01-16T12:01:44;4.30;;;1.35;;
74851;SDS011;63400;50.650;6.832;2024-01-16T12:04:10;4.20;;;0.85;;
74851;SDS011;63400;50.650;6.832;2024-01-16T12:06:36;4.75;;;1.30;;
74851;SDS011;63400;50.650;6.832;2024-01-16T12:09:15;3.80;;;1.42;;
74851;SDS011;63400;50.650;6.832;2024-01-16T12:11:42;5.60;;;1.83;;
74851;SDS011;63400;50.650;6.832;2024-01-16T12:14:10;4.95;;;1.55;;
74851;SDS011;63400;50.650;6.832;2024-01-16T12:16:38;7.60;;;1.27;;
74851;SDS011;63400;50.650;6.832;2024-01-16T12:19:06;5.25;;;1.30;;
74851;SDS011;63400;50.650;6.832;2024-01-16T12:21:39;4.82;;;1.20;;
74851;SDS011;63400;50.650;6.832;2024-01-16T12:24:06;6.50;;;1.75;;
74851;SDS011;63400;50.650;6.832;2024-01-16T12:26:31;5.88;;;1.33;;
74851;SDS011;63400;50.650;6.832;2024-01-16T12:28:57;6.32;;;1.75;;
74851;SDS011;63400;50.650;6.832;2024-01-16T12:31:23;4.93;;;1.20;;
74851;SDS011;63400;50.650;6.832;2024-01-16T12:33:50;5.55;;;1.42;;
74851;SDS011;63400;50.650;6.832;2024-01-16T12:36:16;5.78;;;1.65;;
74851;SDS011;63400;50.650;6.832;2024-01-16T12:38:42;6.72;;;1.27;;
74851;SDS011;63400;50.650;6.832;2024-01-16T12:41:08;5.30;;;1.40;;
74851;SDS011;63400;50.650;6.832;2024-01-16T12:43:35;6.28;;;1.88;;
74851;SDS011;63400;50.650;6.832;2024-01-16T12:46:01;6.30;;;1.45;;
74851;SDS011;63400;50.650;6.832;2024-01-16T12:48:27;6.32;;;1.83;;
74851;SDS011;63400;50.650;6.832;2024-01-16T12:50:59;6.88;;;2.30;;
74851;SDS011;63400;50.650;6.832;2024-01-16T12:53:27;8.15;;;1.95;;
74851;SDS011;63400;50.650;6.832;2024-01-16T12:55:59;7.93;;;2.17;;
74851;SDS011;63400;50.650;6.832;2024-01-16T12:58:25;9.50;;;2.30;;
74851;SDS011;63400;50.650;6.832;2024-01-16T13:01:03;7.68;;;1.88;;
74851;SDS011;63400;50.650;6.832;2024-01-16T13:03:47;5.30;;;1.75;;
74851;SDS011;63400;50.650;6.832;2024-01-16T13:06:17;7.18;;;1.50;;
74851;SDS011;63400;50.650;6.832;2024-01-16T13:08:44;5.05;;;1.00;;
74851;SDS011;63400;50.650;6.832;2024-01-16T13:11:11;5.07;;;1.42;;
74851;SDS011;63400;50.650;6.832;2024-01-16T13:13:36;5.03;;;1.40;;
74851;SDS011;63400;50.650;6.832;2024-01-16T13:16:03;7.05;;;1.50;;
74851;SDS011;63400;50.650;6.832;2024-01-16T13:18:32;6.60;;;2.03;;
74851;SDS011;63400;50.650;6.832;2024-01-16T13:20:58;6.55;;;1.65;;
74851;SDS011;63400;50.650;6.832;2024-01-16T13:23:24;7.38;;;1.63;;
74851;SDS011;63400;50.650;6.832;2024-01-16T13:25:51;6.72;;;1.70;;
74851;SDS011;63400;50.650;6.832;2024-01-16T13:28:17;5.22;;;1.63;;
74851;SDS011;63400;50.650;6.832;2024-01-16T13:30:44;10.85;;;2.63;;
74851;SDS011;63400;50.650;6.832;2024-01-16T13:33:10;7.43;;;1.73;;
74851;SDS011;63400;50.650;6.832;2024-01-16T13:35:40;5.93;;;1.50;;
74851;SDS011;63400;50.650;6.832;2024-01-16T13:38:06;10.18;;;2.08;;
74851;SDS011;63400;50.650;6.832;2024-01-16T13:40:33;6.15;;;1.80;;
74851;SDS011;63400;50.650;6.832;2024-01-16T13:42:59;5.55;;;1.58;;
74851;SDS011;63400;50.650;6.832;2024-01-16T13:45:25;6.20;;;1.60;;
74851;SDS011;63400;50.650;6.832;2024-01-16T13:47:50;7.82;;;1.92;;
74851;SDS011;63400;50.650;6.832;2024-01-16T13:50:16;6.32;;;1.55;;
74851;SDS011;63400;50.650;6.832;2024-01-16T13:52:42;5.43;;;1.40;;
74851;SDS011;63400;50.650;6.832;2024-01-16T13:55:08;6.57;;;1.75;;
74851;SDS011;63400;50.650;6.832;2024-01-16T13:57:34;7.38;;;1.63;;
74851;SDS011;63400;50.650;6.832;2024-01-16T14:00:01;4.70;;;1.13;;
74851;SDS011;63400;50.650;6.832;2024-01-16T14:02:27;7.68;;;1.70;;
74851;SDS011;63400;50.650;6.832;2024-01-16T14:04:53;5.88;;;2.38;;
74851;SDS011;63400;50.650;6.832;2024-01-16T14:07:19;8.63;;;2.38;;
74851;SDS011;63400;50.650;6.832;2024-01-16T14:09:44;8.88;;;2.42;;
74851;SDS011;63400;50.650;6.832;2024-01-16T14:12:09;7.47;;;2.10;;
74851;SDS011;63400;50.650;6.832;2024-01-16T14:14:35;6.22;;;1.45;;
74851;SDS011;63400;50.650;6.832;2024-01-16T14:17:03;6.38;;;1.90;;
74851;SDS011;63400;50.650;6.832;2024-01-16T14:19:29;7.22;;;1.75;;
74851;SDS011;63400;50.650;6.832;2024-01-16T14:21:55;5.25;;;1.85;;
74851;SDS011;63400;50.650;6.832;2024-01-16T14:24:21;9.40;;;1.50;;
74851;SDS011;63400;50.650;6.832;2024-01-16T14:26:46;6.78;;;1.10;;
74851;SDS011;63400;50.650;6.832;2024-01-16T14:29:12;6.35;;;1.73;;
74851;SDS011;63400;50.650;6.832;2024-01-16T14:31:38;6.10;;;1.73;;
74851;SDS011;63400;50.650;6.832;2024-01-16T14:34:09;10.32;;;2.72;;
74851;SDS011;63400;50.650;6.832;2024-01-16T14:36:35;8.50;;;2.55;;
74851;SDS011;63400;50.650;6.832;2024-01-16T14:39:01;9.65;;;2.40;;
74851;SDS011;63400;50.650;6.832;2024-01-16T14:41:26;5.93;;;1.63;;
74851;SDS011;63400;50.650;6.832;2024-01-16T14:43:52;7.32;;;2.22;;
74851;SDS011;63400;50.650;6.832;2024-01-16T14:46:17;7.20;;;2.03;;
74851;SDS011;63400;50.650;6.832;2024-01-16T14:48:44;6.15;;;1.45;;
74851;SDS011;63400;50.650;6.832;2024-01-16T14:51:10;6.38;;;1.42;;